createdAt,value
2018-09-02T00:00:29.350Z,95.10
2018-09-02T00:02:57.756Z,95.10
2018-09-02T00:05:26.184Z,95.20
2018-09-02T00:07:55.018Z,95.10
2018-09-02T00:10:23.434Z,95.50
2018-09-02T00:12:51.811Z,95.50
2018-09-02T00:15:20.206Z,95.50
2018-09-02T00:17:48.611Z,95.80
2018-09-02T00:20:17.021Z,96.10
2018-09-02T00:22:45.434Z,96.50
2018-09-02T00:25:13.833Z,96.90
2018-09-02T00:27:42.531Z,97.10
2018-09-02T00:30:10.939Z,97.00
2018-09-02T00:32:40.387Z,96.90
2018-09-02T00:35:08.804Z,96.80
2018-09-02T00:37:37.197Z,96.90
2018-09-02T00:40:06.496Z,97.00
2018-09-02T00:42:34.895Z,97.30
2018-09-02T00:45:03.279Z,96.80
2018-09-02T00:47:31.785Z,96.90
2018-09-02T00:50:00.859Z,97.10
2018-09-02T00:52:29.267Z,96.80
2018-09-02T00:54:58.577Z,96.30
2018-09-02T00:57:26.988Z,96.10
2018-09-02T00:59:55.419Z,96.00
2018-09-02T01:02:23.815Z,96.00
2018-09-02T01:04:52.205Z,96.10
2018-09-02T01:07:20.607Z,96.10
2018-09-02T01:09:49.010Z,95.90
2018-09-02T01:12:17.825Z,95.70
2018-09-02T01:14:46.597Z,95.80
2018-09-02T01:17:15.000Z,95.90
2018-09-02T01:19:43.397Z,96.10
2018-09-02T01:22:12.753Z,96.20
2018-09-02T01:24:41.586Z,96.10
2018-09-02T01:27:09.977Z,95.90
2018-09-02T01:29:38.801Z,96.10
2018-09-02T01:32:07.194Z,96.30
2018-09-02T01:34:35.599Z,95.80
2018-09-02T01:37:04.035Z,95.60
2018-09-02T01:39:32.452Z,95.40
2018-09-02T01:42:00.836Z,95.50
2018-09-02T01:44:29.961Z,95.50
2018-09-02T01:46:58.366Z,95.60
2018-09-02T01:49:26.754Z,95.50
2018-09-02T01:51:55.728Z,95.30
2018-09-02T01:54:24.152Z,95.40
2018-09-02T01:56:52.870Z,95.80
2018-09-02T01:59:21.330Z,95.60
2018-09-02T02:01:49.720Z,95.60
2018-09-02T02:04:18.118Z,95.80
2018-09-02T02:06:46.529Z,95.80
2018-09-02T02:09:14.914Z,95.70
2018-09-02T02:11:43.750Z,95.70
2018-09-02T02:14:12.588Z,95.60
2018-09-02T02:16:40.979Z,95.50
2018-09-02T02:19:09.380Z,95.40
2018-09-02T02:21:37.771Z,95.70
2018-09-02T02:24:06.193Z,96.00
2018-09-02T02:26:34.642Z,96.40
2018-09-02T02:29:03.054Z,96.60
2018-09-02T02:31:31.464Z,96.80
2018-09-02T02:33:59.867Z,97.00
2018-09-02T02:36:28.258Z,97.20
2018-09-02T02:38:56.646Z,97.30
2018-09-02T02:41:25.078Z,97.00
2018-09-02T02:43:54.650Z,97.00
2018-09-02T02:46:23.492Z,97.10
2018-09-02T02:48:51.874Z,97.20
2018-09-02T02:51:20.272Z,96.70
2018-09-02T02:53:48.676Z,96.70
2018-09-02T02:56:17.088Z,96.60
2018-09-02T02:58:45.542Z,96.50
2018-09-02T03:01:13.940Z,96.50
2018-09-02T03:03:42.386Z,96.60
2018-09-02T03:06:12.123Z,96.90
2018-09-02T03:08:40.471Z,97.10
2018-09-02T03:11:08.858Z,97.20
2018-09-02T03:13:37.264Z,97.20
2018-09-02T03:16:06.657Z,97.30
2018-09-02T03:18:35.061Z,97.30
2018-09-02T03:21:03.457Z,97.10
2018-09-02T03:23:35.087Z,97.10
2018-09-02T03:26:03.960Z,97.10
2018-09-02T03:28:32.352Z,97.20
2018-09-02T03:31:00.797Z,97.30
2018-09-02T03:33:29.222Z,97.60
2018-09-02T03:35:58.403Z,97.60
2018-09-02T03:38:26.899Z,97.80
2018-09-02T03:40:55.303Z,97.80
2018-09-02T03:43:23.866Z,97.80
2018-09-02T03:45:52.250Z,97.40
2018-09-02T03:48:20.643Z,97.50
2018-09-02T03:50:49.032Z,97.30
2018-09-02T03:53:17.424Z,97.50
2018-09-02T03:55:45.814Z,97.00
2018-09-02T03:58:14.922Z,97.00
2018-09-02T04:00:43.335Z,97.30
2018-09-02T04:03:11.741Z,97.30
2018-09-02T04:05:40.233Z,98.00
2018-09-02T04:08:09.084Z,98.00
2018-09-02T04:10:37.477Z,98.00
2018-09-02T04:13:05.986Z,98.00
2018-09-02T04:15:34.371Z,97.90
2018-09-02T04:18:03.509Z,97.90
2018-09-02T04:20:36.186Z,97.80
2018-09-02T04:23:06.205Z,97.60
2018-09-02T04:25:34.979Z,97.50
2018-09-02T04:28:04.047Z,97.50
2018-09-02T04:30:32.439Z,97.50
2018-09-02T04:33:00.827Z,97.40
2018-09-02T04:35:29.223Z,97.50
2018-09-02T04:37:57.621Z,97.60
2018-09-02T04:40:26.007Z,97.60
2018-09-02T04:42:54.425Z,97.70
2018-09-02T04:45:22.876Z,97.80
2018-09-02T04:47:51.259Z,97.80
2018-09-02T04:50:21.545Z,97.70
2018-09-02T04:52:49.943Z,97.70
2018-09-02T04:55:18.377Z,98.00
2018-09-02T04:57:46.767Z,98.30
2018-09-02T05:00:15.249Z,98.20
2018-09-02T05:02:43.596Z,98.10
2018-09-02T05:05:12.003Z,98.20
2018-09-02T05:07:40.839Z,98.50
2018-09-02T05:10:09.233Z,98.70
2018-09-02T05:12:37.749Z,99.00
2018-09-02T05:15:06.700Z,98.90
2018-09-02T05:17:35.915Z,99.00
2018-09-02T05:20:04.721Z,98.90
2018-09-02T05:22:33.382Z,98.70
2018-09-02T05:25:01.773Z,98.70
2018-09-02T05:27:30.202Z,98.90
2018-09-02T05:29:58.597Z,99.20
2018-09-02T05:32:26.975Z,99.20
2018-09-02T05:34:55.349Z,99.20
2018-09-02T05:37:24.186Z,99.60
2018-09-02T05:39:52.603Z,99.40
2018-09-02T05:42:20.989Z,99.70
2018-09-02T05:44:49.383Z,99.50
2018-09-02T05:47:17.770Z,99.50
2018-09-02T05:49:46.173Z,99.90
2018-09-02T05:52:14.564Z,99.90
2018-09-02T05:54:42.962Z,99.90
2018-09-02T05:57:11.382Z,99.80
2018-09-02T05:59:40.063Z,99.60
2018-09-02T06:02:08.518Z,99.70
2018-09-02T06:04:37.535Z,99.80
2018-09-02T06:07:05.916Z,99.80
2018-09-02T06:09:34.496Z,99.80
2018-09-02T06:12:03.345Z,99.90
2018-09-02T06:14:32.416Z,99.90
2018-09-02T06:17:00.871Z,99.90
2018-09-02T06:19:29.257Z,99.90
2018-09-02T06:21:57.791Z,99.90
2018-09-02T06:24:26.298Z,99.90
2018-09-02T06:26:54.706Z,99.90
2018-09-02T06:29:23.133Z,99.90
2018-09-02T06:31:51.534Z,99.90
2018-09-02T06:34:19.922Z,99.90
2018-09-02T06:36:48.349Z,99.90
2018-09-02T06:39:16.767Z,99.90
2018-09-02T06:41:45.304Z,99.90
2018-09-02T06:44:13.763Z,99.90
2018-09-02T06:46:42.158Z,99.90
2018-09-02T06:49:10.598Z,99.90
2018-09-02T06:51:39.012Z,99.90
2018-09-02T06:54:07.414Z,99.90
2018-09-02T06:56:35.837Z,99.90
2018-09-02T06:59:04.259Z,99.90
2018-09-02T07:01:34.164Z,99.90
2018-09-02T07:04:02.581Z,99.90
2018-09-02T07:06:30.984Z,99.90
2018-09-02T07:08:59.429Z,99.90
2018-09-02T07:11:28.678Z,99.90
2018-09-02T07:13:57.073Z,99.90
2018-09-02T07:16:25.496Z,99.90
2018-09-02T07:18:53.906Z,99.90
2018-09-02T07:21:22.302Z,99.90
2018-09-02T07:23:50.737Z,99.90
2018-09-02T07:26:19.150Z,99.90
2018-09-02T07:28:47.953Z,99.90
2018-09-02T07:31:16.881Z,99.90
2018-09-02T07:33:45.316Z,99.90
2018-09-02T07:36:13.725Z,99.90
2018-09-02T07:38:42.198Z,99.90
2018-09-02T07:41:10.910Z,99.90
2018-09-02T07:43:39.765Z,99.90
2018-09-02T07:46:08.752Z,99.90
2018-09-02T07:48:37.134Z,99.90
2018-09-02T07:51:06.218Z,99.90
2018-09-02T07:53:34.610Z,99.90
2018-09-02T07:56:03.146Z,99.90
2018-09-02T07:58:31.563Z,99.90
2018-09-02T08:00:59.967Z,99.90
2018-09-02T08:03:28.355Z,99.90
2018-09-02T08:05:57.191Z,99.90
2018-09-02T08:08:25.605Z,99.90
2018-09-02T08:10:54.046Z,99.90
2018-09-02T08:13:23.056Z,99.90
2018-09-02T08:15:51.475Z,99.90
2018-09-02T08:18:19.863Z,99.90
2018-09-02T08:20:48.277Z,99.90
2018-09-02T08:23:16.710Z,99.90
2018-09-02T08:25:45.452Z,99.90
2018-09-02T08:28:13.883Z,99.90
2018-09-02T08:30:42.315Z,99.90
2018-09-02T08:33:10.738Z,99.90
2018-09-02T08:35:39.383Z,99.90
2018-09-02T08:38:12.151Z,99.90
2018-09-02T08:40:40.587Z,99.60
2018-09-02T08:43:09.017Z,99.90
2018-09-02T08:45:37.909Z,99.60
2018-09-02T08:48:06.391Z,99.00
2018-09-02T08:50:34.957Z,98.60
2018-09-02T08:53:03.368Z,98.40
2018-09-02T08:55:32.125Z,98.50
2018-09-02T08:58:00.976Z,98.00
2018-09-02T09:00:29.873Z,98.00
2018-09-02T09:02:58.320Z,97.70
2018-09-02T09:05:26.730Z,97.80
2018-09-02T09:07:55.267Z,97.50
2018-09-02T09:10:23.650Z,97.60
2018-09-02T09:12:52.078Z,97.00
2018-09-02T09:15:20.452Z,96.00
2018-09-02T09:17:48.980Z,95.10
2018-09-02T09:20:17.390Z,93.50
2018-09-02T09:22:45.864Z,92.50
2018-09-02T09:25:14.424Z,92.30
2018-09-02T09:27:42.696Z,91.70
2018-09-02T09:30:11.601Z,90.80
2018-09-02T09:32:40.651Z,89.60
2018-09-02T09:35:09.047Z,89.10
2018-09-02T09:37:37.707Z,87.80
2018-09-02T09:40:06.576Z,87.30
2018-09-02T09:42:34.983Z,87.50
2018-09-02T09:45:04.107Z,85.80
2018-09-02T09:47:32.546Z,84.20
2018-09-02T09:50:00.964Z,83.60
2018-09-02T09:52:29.393Z,82.80
2018-09-02T09:54:58.098Z,83.10
2018-09-02T09:57:26.494Z,84.00
2018-09-02T09:59:54.967Z,83.20
2018-09-02T10:02:23.394Z,82.20
2018-09-02T10:04:51.808Z,81.80
2018-09-02T10:07:20.207Z,82.00
2018-09-02T10:09:48.664Z,81.70
2018-09-02T10:12:17.063Z,81.10
2018-09-02T10:14:45.447Z,80.20
2018-09-02T10:17:13.876Z,78.10
2018-09-02T10:19:42.297Z,77.80
2018-09-02T10:22:10.746Z,78.10
2018-09-02T10:24:39.095Z,78.60
2018-09-02T10:27:07.485Z,76.90
2018-09-02T10:29:35.869Z,76.40
2018-09-02T10:32:04.263Z,75.60
2018-09-02T10:34:32.651Z,76.10
2018-09-02T10:37:01.047Z,75.70
2018-09-02T10:39:29.446Z,75.20
2018-09-02T10:41:58.118Z,74.60
2018-09-02T10:44:26.526Z,74.40
2018-09-02T10:46:54.930Z,74.60
2018-09-02T10:49:23.318Z,72.70
2018-09-02T10:51:51.723Z,71.00
2018-09-02T10:54:20.110Z,69.00
2018-09-02T10:56:48.531Z,70.40
2018-09-02T10:59:17.004Z,69.70
2018-09-02T11:01:45.386Z,69.80
2018-09-02T11:04:13.778Z,67.30
2018-09-02T11:06:42.207Z,65.90
2018-09-02T11:09:11.724Z,67.20
2018-09-02T11:11:40.176Z,67.00
2018-09-02T11:14:09.236Z,65.40
2018-09-02T11:16:37.712Z,65.10
2018-09-02T11:19:06.688Z,65.80
2018-09-02T11:21:35.117Z,66.60
2018-09-02T11:24:03.515Z,65.30
2018-09-02T11:26:31.890Z,62.00
2018-09-02T11:29:00.465Z,59.50
2018-09-02T11:31:28.854Z,58.80
2018-09-02T11:33:57.299Z,58.40
2018-09-02T11:36:26.049Z,56.40
2018-09-02T11:38:54.446Z,55.90
2018-09-02T11:41:22.861Z,57.10
2018-09-02T11:43:51.276Z,56.10
2018-09-02T11:46:19.674Z,56.30
2018-09-02T11:48:48.067Z,55.80
2018-09-02T11:51:16.480Z,54.20
2018-09-02T11:53:44.881Z,53.80
2018-09-02T11:56:13.291Z,53.50
2018-09-02T11:58:41.873Z,54.10
2018-09-02T12:01:10.285Z,54.30
2018-09-02T12:03:38.665Z,53.30
2018-09-02T12:06:07.069Z,53.50
2018-09-02T12:08:35.585Z,53.70
2018-09-02T12:11:03.995Z,54.20
2018-09-02T12:13:32.475Z,53.20
2018-09-02T12:16:00.949Z,52.90
2018-09-02T12:18:29.469Z,54.10
2018-09-02T12:20:57.891Z,52.70
2018-09-02T12:23:26.357Z,52.20
2018-09-02T12:25:54.773Z,54.00
2018-09-02T12:28:23.177Z,54.50
2018-09-02T12:30:51.583Z,52.70
2018-09-02T12:33:20.028Z,52.50
2018-09-02T12:35:48.457Z,52.80
2018-09-02T12:38:16.879Z,52.40
2018-09-02T12:40:45.336Z,52.80
2018-09-02T12:43:13.775Z,52.90
2018-09-02T12:45:42.211Z,52.70
2018-09-02T12:48:10.622Z,52.20
2018-09-02T12:50:39.030Z,51.30
2018-09-02T12:53:07.434Z,50.50
2018-09-02T12:55:35.847Z,50.40
2018-09-02T12:58:04.262Z,50.50
2018-09-02T13:00:34.719Z,51.30
2018-09-02T13:03:04.034Z,50.90
2018-09-02T13:05:32.404Z,51.70
2018-09-02T13:08:00.778Z,50.70
2018-09-02T13:10:29.167Z,50.50
2018-09-02T13:12:57.580Z,51.40
2018-09-02T13:15:26.051Z,52.10
2018-09-02T13:17:54.383Z,51.70
2018-09-02T13:20:22.775Z,51.70
2018-09-02T13:22:51.163Z,50.70
2018-09-02T13:25:19.610Z,50.80
2018-09-02T13:27:48.063Z,50.60
2018-09-02T13:30:16.490Z,51.50
2018-09-02T13:32:44.893Z,50.50
2018-09-02T13:35:13.289Z,50.60
2018-09-02T13:37:41.677Z,50.30
2018-09-02T13:40:10.228Z,50.30
2018-09-02T13:42:38.685Z,50.10
2018-09-02T13:45:07.955Z,49.80
2018-09-02T13:47:36.739Z,49.60
2018-09-02T13:50:05.175Z,50.70
2018-09-02T13:52:33.592Z,50.70
2018-09-02T13:55:02.007Z,51.00
2018-09-02T13:57:30.405Z,51.10
2018-09-02T13:59:58.793Z,51.20
2018-09-02T14:02:27.198Z,50.40
2018-09-02T14:04:55.596Z,49.40
2018-09-02T14:07:24.300Z,48.90
2018-09-02T14:09:52.732Z,48.90
2018-09-02T14:12:21.162Z,49.60
2018-09-02T14:14:50.062Z,49.50
2018-09-02T14:17:18.487Z,49.70
2018-09-02T14:19:46.878Z,49.70
2018-09-02T14:22:15.298Z,49.80
2018-09-02T14:24:43.695Z,50.20
2018-09-02T14:27:12.094Z,50.40
2018-09-02T14:29:40.724Z,51.00
2018-09-02T14:32:09.126Z,50.00
2018-09-02T14:34:37.517Z,49.60
2018-09-02T14:37:06.348Z,49.70
2018-09-02T14:39:34.742Z,49.20
2018-09-02T14:42:03.289Z,48.20
2018-09-02T14:44:31.686Z,48.20
2018-09-02T14:47:00.065Z,48.30
2018-09-02T14:49:28.465Z,48.30
2018-09-02T14:51:56.855Z,48.00
2018-09-02T14:54:25.243Z,47.80
2018-09-02T14:56:53.631Z,47.80
2018-09-02T14:59:22.039Z,48.40
2018-09-02T15:01:50.430Z,48.20
2018-09-02T15:04:18.841Z,46.50
2018-09-02T15:06:47.231Z,46.20
2018-09-02T15:09:15.611Z,47.10
2018-09-02T15:11:44.119Z,47.00
2018-09-02T15:14:12.516Z,47.10
2018-09-02T15:16:40.942Z,47.10
2018-09-02T15:19:09.346Z,46.80
2018-09-02T15:21:37.782Z,46.80
2018-09-02T15:24:06.215Z,47.70
2018-09-02T15:26:34.605Z,48.10
2018-09-02T15:29:03.021Z,47.70
2018-09-02T15:31:31.419Z,46.60
2018-09-02T15:33:59.806Z,46.50
2018-09-02T15:36:28.195Z,46.40
2018-09-02T15:38:56.627Z,46.20
2018-09-02T15:41:25.037Z,46.00
2018-09-02T15:43:53.431Z,45.90
2018-09-02T15:46:21.868Z,46.90
2018-09-02T15:48:50.298Z,46.70
2018-09-02T15:51:18.691Z,46.70
2018-09-02T15:53:47.103Z,46.30
2018-09-02T15:56:15.510Z,45.60
2018-09-02T15:58:43.920Z,44.60
2018-09-02T16:01:12.298Z,44.80
2018-09-02T16:03:40.714Z,44.80
2018-09-02T16:06:09.129Z,45.00
2018-09-02T16:08:37.747Z,45.00
2018-09-02T16:11:06.167Z,44.60
2018-09-02T16:13:34.579Z,44.00
2018-09-02T16:16:02.973Z,44.10
2018-09-02T16:18:31.386Z,44.10
2018-09-02T16:20:59.788Z,43.50
2018-09-02T16:23:28.187Z,43.40
2018-09-02T16:25:56.795Z,43.80
2018-09-02T16:28:25.227Z,43.10
2018-09-02T16:30:53.842Z,42.90
2018-09-02T16:33:22.418Z,42.90
2018-09-02T16:35:50.892Z,42.50
2018-09-02T16:38:19.289Z,42.30
2018-09-02T16:40:48.012Z,42.10
2018-09-02T16:43:16.440Z,42.20
2018-09-02T16:45:44.838Z,42.10
2018-09-02T16:48:13.236Z,42.80
2018-09-02T16:50:41.638Z,42.80
2018-09-02T16:53:10.025Z,42.60
2018-09-02T16:55:38.415Z,42.20
2018-09-02T16:58:06.838Z,42.80
2018-09-02T17:00:35.279Z,43.00
2018-09-02T17:03:03.717Z,43.00
2018-09-02T17:05:32.123Z,43.10
2018-09-02T17:08:00.515Z,43.30
2018-09-02T17:10:28.929Z,43.70
2018-09-02T17:12:57.436Z,43.90
2018-09-02T17:15:25.764Z,43.60
2018-09-02T17:17:54.662Z,43.90
2018-09-02T17:20:29.649Z,44.00
2018-09-02T17:23:03.305Z,43.90
2018-09-02T17:25:31.761Z,44.10
2018-09-02T17:28:00.171Z,44.40
2018-09-02T17:30:28.599Z,44.50
2018-09-02T17:32:58.041Z,45.00
2018-09-02T17:35:27.173Z,45.40
2018-09-02T17:37:55.653Z,45.60
2018-09-02T17:40:24.094Z,45.90
2018-09-02T17:42:52.520Z,46.10
2018-09-02T17:45:21.247Z,46.60
2018-09-02T17:47:49.671Z,47.00
2018-09-02T17:50:18.419Z,47.60
2018-09-02T17:52:47.731Z,48.10
2018-09-02T17:55:16.380Z,48.70
2018-09-02T17:57:44.838Z,49.80
2018-09-02T18:00:17.937Z,50.00
2018-09-02T18:02:46.820Z,50.60
2018-09-02T18:05:15.204Z,51.40
2018-09-02T18:07:43.763Z,51.80
2018-09-02T18:10:12.174Z,52.50
2018-09-02T18:12:41.138Z,53.20
2018-09-02T18:15:09.582Z,54.40
2018-09-02T18:17:38.080Z,55.10
2018-09-02T18:20:12.419Z,56.10
2018-09-02T18:22:40.929Z,57.20
2018-09-02T18:25:09.376Z,58.20
2018-09-02T18:27:40.486Z,58.80
2018-09-02T18:30:08.926Z,59.50
2018-09-02T18:32:38.401Z,59.60
2018-09-02T18:35:06.727Z,60.50
2018-09-02T18:37:35.210Z,61.90
2018-09-02T18:40:03.665Z,63.50
2018-09-02T18:42:32.073Z,64.60
2018-09-02T18:45:01.824Z,66.00
2018-09-02T18:47:30.230Z,67.00
2018-09-02T18:49:58.648Z,67.90
2018-09-02T18:52:27.161Z,68.50
2018-09-02T18:54:55.554Z,69.40
2018-09-02T18:57:23.994Z,70.50
2018-09-02T18:59:52.384Z,72.30
2018-09-02T19:02:20.844Z,72.40
2018-09-02T19:04:49.263Z,73.60
2018-09-02T19:07:18.020Z,74.40
2018-09-02T19:09:46.504Z,75.00
2018-09-02T19:12:14.862Z,76.20
2018-09-02T19:14:43.275Z,77.00
2018-09-02T19:17:11.701Z,77.60
2018-09-02T19:19:40.584Z,77.90
2018-09-02T19:22:09.421Z,78.50
2018-09-02T19:24:38.471Z,78.90
2018-09-02T19:27:07.011Z,79.50
2018-09-02T19:29:35.455Z,80.40
2018-09-02T19:32:03.899Z,81.00
2018-09-02T19:34:32.303Z,81.80
2018-09-02T19:37:00.722Z,82.70
2018-09-02T19:39:29.124Z,83.30
2018-09-02T19:41:57.789Z,83.60
2018-09-02T19:44:26.203Z,84.10
2018-09-02T19:46:54.644Z,84.50
2018-09-02T19:49:23.906Z,85.00
2018-09-02T19:51:52.865Z,85.40
2018-09-02T19:54:28.570Z,85.60
2018-09-02T19:56:58.048Z,85.40
2018-09-02T19:59:26.436Z,85.70
2018-09-02T20:01:55.012Z,86.10
2018-09-02T20:04:23.543Z,86.30
2018-09-02T20:06:51.945Z,86.60
2018-09-02T20:09:20.363Z,86.90
2018-09-02T20:11:48.782Z,87.40
2018-09-02T20:14:17.224Z,87.70
2018-09-02T20:16:45.654Z,88.10
2018-09-02T20:19:14.064Z,88.60
2018-09-02T20:21:42.472Z,89.70
2018-09-02T20:24:16.126Z,90.10
2018-09-02T20:26:44.572Z,90.40
2018-09-02T20:29:12.984Z,90.80
2018-09-02T20:31:41.397Z,90.90
2018-09-02T20:34:09.796Z,91.00
2018-09-02T20:36:38.206Z,91.30
2018-09-02T20:39:08.211Z,91.40
2018-09-02T20:41:36.895Z,91.40
2018-09-02T20:44:05.693Z,91.40
2018-09-02T20:46:34.385Z,91.40
2018-09-02T20:49:02.839Z,91.40
2018-09-02T20:51:31.241Z,91.40
2018-09-02T20:53:59.792Z,91.50
2018-09-02T20:56:28.206Z,91.60
2018-09-02T20:58:57.219Z,91.60
2018-09-02T21:01:25.734Z,91.80
2018-09-02T21:03:54.206Z,91.90
2018-09-02T21:06:23.087Z,92.00
2018-09-02T21:08:51.491Z,92.00
2018-09-02T21:11:19.919Z,92.00
2018-09-02T21:13:48.311Z,92.10
2018-09-02T21:16:16.711Z,92.20
2018-09-02T21:18:45.127Z,92.20
2018-09-02T21:21:13.968Z,92.80
2018-09-02T21:23:42.469Z,92.40
2018-09-02T21:26:10.865Z,92.50
2018-09-02T21:28:39.372Z,92.60
2018-09-02T21:31:08.470Z,92.70
2018-09-02T21:33:37.434Z,92.50
2018-09-02T21:36:06.021Z,92.50
2018-09-02T21:38:34.426Z,92.60
2018-09-02T21:41:02.845Z,92.80
2018-09-02T21:43:31.514Z,92.90
2018-09-02T21:46:00.332Z,93.10
2018-09-02T21:48:28.726Z,93.30
2018-09-02T21:50:57.198Z,93.50
2018-09-02T21:53:26.306Z,93.70
2018-09-02T21:55:54.718Z,93.80
2018-09-02T21:58:23.261Z,94.00
2018-09-02T22:00:51.684Z,94.20
2018-09-02T22:03:20.071Z,94.30
2018-09-02T22:05:48.678Z,94.40
2018-09-02T22:08:17.312Z,94.50
2018-09-02T22:10:45.706Z,94.60
2018-09-02T22:13:14.665Z,94.50
2018-09-02T22:15:43.090Z,94.50
2018-09-02T22:18:11.509Z,94.50
2018-09-02T22:20:41.891Z,94.60
2018-09-02T22:23:10.722Z,94.60
2018-09-02T22:25:39.221Z,94.70
2018-09-02T22:28:07.547Z,95.00
2018-09-02T22:30:36.211Z,95.20
2018-09-02T22:33:05.009Z,95.30
2018-09-02T22:35:33.413Z,95.60
2018-09-02T22:38:02.362Z,95.70
2018-09-02T22:40:30.769Z,95.70
2018-09-02T22:42:59.186Z,95.70
2018-09-02T22:45:27.881Z,95.60
2018-09-02T22:47:56.311Z,95.70
2018-09-02T22:50:25.113Z,95.80
2018-09-02T22:52:53.706Z,95.90
2018-09-02T22:55:22.100Z,95.90
2018-09-02T22:57:50.929Z,96.00
2018-09-02T23:00:19.300Z,96.10
2018-09-02T23:02:47.989Z,96.30
2018-09-02T23:05:16.847Z,96.30
2018-09-02T23:07:46.355Z,96.40
2018-09-02T23:10:14.749Z,96.40
2018-09-02T23:12:43.170Z,96.40
2018-09-02T23:15:11.592Z,96.40
2018-09-02T23:17:40.002Z,96.60
2018-09-02T23:20:08.796Z,96.70
2018-09-02T23:22:37.239Z,96.70
2018-09-02T23:25:05.658Z,96.80
2018-09-02T23:27:34.720Z,96.80
2018-09-02T23:30:03.135Z,96.80
2018-09-02T23:32:31.536Z,96.80
2018-09-02T23:35:00.311Z,96.80
2018-09-02T23:37:29.142Z,96.80
2018-09-02T23:39:57.539Z,96.70
2018-09-02T23:42:25.940Z,96.60
2018-09-02T23:44:54.345Z,96.60
2018-09-02T23:47:23.194Z,96.50
2018-09-02T23:49:51.596Z,96.50
2018-09-02T23:52:19.989Z,96.40
2018-09-02T23:54:48.382Z,96.40
2018-09-02T23:57:16.779Z,96.40
2018-09-02T23:59:45.162Z,96.50
